Time;durP1;ratioP1;P1;durP2;ratioP2;P2;SDS_P1;SDS_P2;PMS_P1;PMS_P2;Temp;Humidity;BMP_temperature;BMP_pressure;BME280_temperature;BME280_humidity;BME280_pressure;Samples;Min_cycle;Max_cycle;Signal;HPM_P1;HPM_P2
2022/12/10 00:00:39;;;;;;;54.95;22.88;;;-0.20;99.90;;;;;;5030546;28;20307;-62
2022/12/10 00:03:04;;;;;;;53.83;23.90;;;-0.20;99.90;;;;;;5029626;28;20032;-63
2022/12/10 00:05:33;;;;;;;53.08;24.35;;;-0.20;99.90;;;;;;5029572;28;20437;-62
2022/12/10 00:07:58;;;;;;;52.08;23.95;;;-0.20;99.90;;;;;;5028896;28;20069;-62
2022/12/10 00:10:24;;;;;;;54.75;24.38;;;-0.20;99.90;;;;;;5021656;28;20440;-62
2022/12/10 00:12:50;;;;;;;57.00;25.13;;;-0.20;99.90;;;;;;5029451;28;20045;-62
2022/12/10 00:15:16;;;;;;;57.15;24.15;;;-0.20;99.90;;;;;;5029484;28;20059;-63
2022/12/10 00:17:42;;;;;;;57.33;24.90;;;-0.20;99.90;;;;;;5029703;28;20046;-62
2022/12/10 00:20:08;;;;;;;52.58;24.23;;;-0.20;99.90;;;;;;5026352;28;20578;-61
2022/12/10 00:22:34;;;;;;;51.03;24.13;;;-0.30;99.90;;;;;;5030528;28;20037;-62
2022/12/10 00:25:00;;;;;;;50.78;24.70;;;-0.30;99.90;;;;;;5029819;28;20530;-63
2022/12/10 00:27:25;;;;;;;50.40;24.05;;;-0.30;99.90;;;;;;5023711;28;20114;-63
2022/12/10 00:29:51;;;;;;;55.65;24.35;;;-0.30;99.90;;;;;;5028644;28;20045;-62
2022/12/10 00:32:17;;;;;;;51.75;23.48;;;-0.40;99.90;;;;;;5030025;28;20040;-63
2022/12/10 00:34:42;;;;;;;53.72;24.73;;;-0.40;99.90;;;;;;5027391;28;20041;-62
2022/12/10 00:37:08;;;;;;;54.78;24.90;;;-0.40;99.90;;;;;;5030834;28;20041;-62
2022/12/10 00:39:33;;;;;;;56.28;25.38;;;-0.40;99.90;;;;;;5021052;28;20033;-63
2022/12/10 00:41:59;;;;;;;54.97;24.85;;;-0.50;99.90;;;;;;5030033;28;20059;-62
2022/12/10 00:44:25;;;;;;;56.80;25.25;;;-0.50;99.90;;;;;;5030981;28;20446;-62
2022/12/10 00:46:50;;;;;;;58.10;24.42;;;-0.50;99.90;;;;;;5028893;28;20042;-62
2022/12/10 00:49:16;;;;;;;54.00;24.38;;;-0.50;99.90;;;;;;5027783;28;20149;-62
2022/12/10 00:51:42;;;;;;;54.83;24.88;;;-0.50;99.90;;;;;;5026967;28;20092;-62
2022/12/10 00:54:08;;;;;;;58.95;23.83;;;-0.50;99.90;;;;;;5029553;28;20107;-62
2022/12/10 00:56:34;;;;;;;59.50;26.15;;;-0.50;99.90;;;;;;5030091;28;20116;-62
2022/12/10 00:59:00;;;;;;;52.70;24.13;;;-0.60;99.90;;;;;;5027390;28;20073;-62
2022/12/10 01:01:32;;;;;;;57.33;25.80;;;-0.60;99.90;;;;;;5030158;28;20030;-62
2022/12/10 01:04:04;;;;;;;57.90;23.83;;;-0.60;99.90;;;;;;5029058;28;20083;-63
2022/12/10 01:06:33;;;;;;;56.53;25.48;;;-0.50;99.90;;;;;;5028098;28;20073;-63
2022/12/10 01:09:02;;;;;;;64.50;24.80;;;-0.50;99.90;;;;;;5026968;28;20590;-62
2022/12/10 01:11:39;;;;;;;59.10;25.60;;;-0.60;99.90;;;;;;5028308;28;20117;-62
2022/12/10 01:14:07;;;;;;;55.42;25.45;;;-0.50;99.90;;;;;;5029726;28;20044;-63
2022/12/10 01:16:32;;;;;;;54.65;25.00;;;-0.50;99.90;;;;;;5029859;28;20072;-63
2022/12/10 01:18:58;;;;;;;58.58;25.98;;;-0.50;99.90;;;;;;5027581;28;20076;-61
2022/12/10 01:21:26;;;;;;;59.92;25.55;;;-0.60;99.90;;;;;;5027674;28;20041;-62
2022/12/10 01:23:52;;;;;;;57.22;24.75;;;-0.50;99.90;;;;;;5028661;28;20046;-62
2022/12/10 01:26:21;;;;;;;59.85;26.17;;;-0.60;99.90;;;;;;5026324;28;20091;-62
2022/12/10 01:28:48;;;;;;;63.38;26.48;;;-0.50;99.90;;;;;;5029245;28;20038;-62
2022/12/10 01:31:30;;;;;;;58.40;26.88;;;-0.60;99.90;;;;;;5028047;28;20117;-62
2022/12/10 01:33:57;;;;;;;60.20;26.35;;;-0.60;99.90;;;;;;5027477;28;20041;-61
2022/12/10 01:36:30;;;;;;;62.17;28.20;;;-0.50;99.90;;;;;;5026234;28;20045;-62
2022/12/10 01:38:56;;;;;;;56.50;25.80;;;-0.60;99.90;;;;;;5029106;28;20465;-62
2022/12/10 01:41:28;;;;;;;59.85;26.48;;;-0.50;99.90;;;;;;5028200;28;20132;-61
2022/12/10 01:44:07;;;;;;;61.80;26.02;;;0.10;99.90;;;;;;5028591;28;20060;-62
2022/12/10 01:46:39;;;;;;;59.35;26.25;;;-0.50;99.90;;;;;;5030066;28;20733;-62
2022/12/10 01:49:07;;;;;;;62.78;27.02;;;-0.50;99.90;;;;;;5020022;28;20060;-62
2022/12/10 01:51:36;;;;;;;61.00;26.30;;;-0.50;99.90;;;;;;5029347;28;20033;-63
2022/12/10 01:54:05;;;;;;;60.58;26.85;;;-0.50;99.90;;;;;;5027495;28;20033;-63
2022/12/10 01:56:34;;;;;;;63.28;26.05;;;-0.50;99.90;;;;;;5029445;28;20116;-62
2022/12/10 01:59:00;;;;;;;56.67;26.73;;;-0.50;99.90;;;;;;5028812;28;20088;-61
2022/12/10 02:01:36;;;;;;;63.10;26.58;;;-0.50;99.90;;;;;;5027378;28;20072;-63
2022/12/10 02:04:10;;;;;;;63.65;26.77;;;-0.50;99.90;;;;;;5028286;28;20518;-62
2022/12/10 02:06:44;;;;;;;61.92;26.00;;;-0.50;99.90;;;;;;5027038;28;20132;-63
2022/12/10 02:09:31;;;;;;;60.00;27.95;;;-0.50;99.90;;;;;;5025117;28;20485;-63
2022/12/10 02:12:16;;;;;;;64.60;27.02;;;-0.50;99.90;;;;;;5029558;28;20052;-62
2022/12/10 02:15:02;;;;;;;57.40;25.98;;;-0.50;99.90;;;;;;5026452;28;20038;-63
2022/12/10 02:17:33;;;;;;;69.72;27.05;;;-0.60;99.90;;;;;;5025889;28;20030;-63
2022/12/10 02:20:08;;;;;;;58.92;27.00;;;-0.60;99.90;;;;;;5027988;28;20128;-61
2022/12/10 02:22:40;;;;;;;63.17;26.85;;;-0.60;99.90;;;;;;5024225;28;20435;-63
2022/12/10 02:25:08;;;;;;;61.28;26.95;;;-0.70;99.90;;;;;;5021574;28;20116;-62
2022/12/10 02:27:47;;;;;;;59.55;25.30;;;-0.70;99.90;;;;;;5029091;28;20109;-63
2022/12/10 02:30:13;;;;;;;63.60;26.65;;;-0.70;99.90;;;;;;5028180;28;20041;-63
2022/12/10 02:32:43;;;;;;;62.97;27.10;;;-0.70;99.90;;;;;;5028323;28;20466;-62
2022/12/10 02:35:18;;;;;;;58.05;25.65;;;-0.70;99.90;;;;;;5028327;28;20053;-63
2022/12/10 02:37:59;;;;;;;61.20;27.40;;;-0.70;99.90;;;;;;5029295;28;20037;-62
2022/12/10 02:40:31;;;;;;;64.43;26.40;;;-0.70;99.90;;;;;;5031029;28;20060;-63
2022/12/10 02:42:57;;;;;;;62.30;25.27;;;-0.70;99.90;;;;;;5032818;28;20041;-62
2022/12/10 02:45:25;;;;;;;61.13;26.67;;;-0.80;99.90;;;;;;5033122;28;20034;-63
2022/12/10 02:47:55;;;;;;;59.50;27.20;;;-0.70;99.90;;;;;;5032319;28;20041;-63
2022/12/10 02:50:21;;;;;;;69.95;27.77;;;-0.70;99.90;;;;;;5026738;28;20037;-63
2022/12/10 02:52:47;;;;;;;64.35;26.98;;;-0.70;99.90;;;;;;5032391;28;20029;-63
2022/12/10 02:55:14;;;;;;;65.10;27.17;;;-0.70;99.90;;;;;;5031590;28;20053;-63
2022/12/10 02:57:57;;;;;;;68.88;28.98;;;-0.70;99.90;;;;;;5023182;28;20578;-63
2022/12/10 03:00:24;;;;;;;69.82;28.08;;;-0.70;99.90;;;;;;5025948;28;20044;-62
2022/12/10 03:03:21;;;;;;;67.90;28.90;;;-0.70;99.90;;;;;;5032313;28;20053;-62
2022/12/10 03:06:11;;;;;;;66.10;27.58;;;-0.70;99.90;;;;;;5032594;28;20037;-62
2022/12/10 03:08:57;;;;;;;60.20;25.20;;;-0.80;99.90;;;;;;5030442;28;20092;-62
2022/12/10 03:11:23;;;;;;;63.65;26.38;;;-0.80;99.90;;;;;;5026622;28;20393;-63
2022/12/10 03:14:13;;;;;;;64.78;26.90;;;-0.90;99.90;;;;;;5026167;28;20471;-62
2022/12/10 03:16:46;;;;;;;64.18;28.15;;;-0.90;99.90;;;;;;5028485;28;20407;-63
2022/12/10 03:19:16;;;;;;;58.78;25.95;;;-1.00;99.90;;;;;;5030539;28;20116;-63
2022/12/10 03:21:44;;;;;;;63.40;26.98;;;-0.90;99.90;;;;;;5031572;28;20041;-63
2022/12/10 03:24:11;;;;;;;73.10;29.17;;;-1.00;99.90;;;;;;5031764;28;20037;-63
2022/12/10 03:26:41;;;;;;;64.75;26.42;;;-1.00;99.90;;;;;;5031605;28;20120;-63
2022/12/10 03:29:12;;;;;;;65.50;26.88;;;-0.90;99.90;;;;;;5030764;28;20088;-61
2022/12/10 03:31:40;;;;;;;67.90;27.92;;;-0.90;99.90;;;;;;5028681;28;20087;-63
2022/12/10 03:34:06;;;;;;;65.90;28.70;;;-0.90;99.90;;;;;;5022072;28;20549;-63
2022/12/10 03:36:33;;;;;;;67.15;29.42;;;-0.90;99.90;;;;;;5031639;28;20040;-63
2022/12/10 03:38:59;;;;;;;67.18;27.20;;;-0.90;99.90;;;;;;5029750;28;20159;-62
2022/12/10 03:41:25;;;;;;;76.15;28.98;;;-0.90;99.90;;;;;;5031193;28;20033;-63
2022/12/10 03:43:57;;;;;;;67.63;27.58;;;-0.90;99.90;;;;;;5030722;28;20046;-63
2022/12/10 03:46:29;;;;;;;69.82;28.15;;;-0.90;99.90;;;;;;5032056;28;20033;-63
2022/12/10 03:48:55;;;;;;;67.57;27.35;;;-0.90;99.90;;;;;;5030024;28;20038;-62
2022/12/10 03:51:21;;;;;;;66.10;27.17;;;-0.90;99.90;;;;;;5030943;28;20048;-63
2022/12/10 03:53:50;;;;;;;64.07;26.15;;;-0.90;99.90;;;;;;5031217;28;20492;-63
2022/12/10 03:56:17;;;;;;;66.50;27.13;;;-1.00;99.90;;;;;;5030929;28;20099;-63
2022/12/10 03:58:43;;;;;;;65.35;27.77;;;-1.00;99.90;;;;;;5029948;28;20399;-62
2022/12/10 04:01:08;;;;;;;59.33;26.02;;;-1.00;99.90;;;;;;5025495;28;20037;-63
2022/12/10 04:03:36;;;;;;;62.42;27.25;;;-1.00;99.90;;;;;;5031024;28;20033;-63
2022/12/10 04:06:08;;;;;;;63.83;28.00;;;-1.00;99.90;;;;;;5029776;28;20133;-62
2022/12/10 04:08:33;;;;;;;68.13;27.83;;;-1.10;99.90;;;;;;5026680;28;20041;-62
2022/12/10 04:11:07;;;;;;;67.75;28.38;;;-1.10;99.90;;;;;;5029354;28;20091;-62
2022/12/10 04:16:28;;;;;;;62.90;26.13;;;-1.10;99.90;;;;;;5030320;28;20255;-63
2022/12/10 04:18:58;;;;;;;63.50;27.25;;;-1.10;99.90;;;;;;5031267;28;20484;-63
2022/12/10 04:26:56;;;;;;;75.18;27.70;;;-1.10;99.90;;;;;;5030485;28;20042;-63
2022/12/10 04:29:24;;;;;;;70.03;27.65;;;-1.10;99.90;;;;;;5030358;28;20029;-63
2022/12/10 04:31:50;;;;;;;64.55;26.98;;;-1.10;99.90;;;;;;5030688;28;20043;-63
2022/12/10 04:34:16;;;;;;;70.60;28.85;;;-1.10;99.90;;;;;;5030089;28;20120;-62
2022/12/10 04:36:41;;;;;;;67.43;28.05;;;-1.20;99.90;;;;;;5027408;28;20045;-63
2022/12/10 04:39:07;;;;;;;68.22;28.20;;;-1.20;99.90;;;;;;5029234;28;20037;-63
2022/12/10 04:41:33;;;;;;;61.35;27.20;;;-1.20;99.90;;;;;;5030250;28;20130;-63
2022/12/10 04:43:58;;;;;;;63.50;26.95;;;-1.20;99.90;;;;;;5030270;28;20324;-63
2022/12/10 04:46:24;;;;;;;64.60;26.90;;;-1.20;99.90;;;;;;5029630;28;20068;-63
2022/12/10 04:48:49;;;;;;;65.57;27.13;;;-1.20;99.90;;;;;;5029317;28;20403;-63
2022/12/10 04:51:15;;;;;;;70.63;27.67;;;-1.20;99.90;;;;;;5029810;28;20037;-63
2022/12/10 04:53:41;;;;;;;60.67;26.13;;;-1.20;99.90;;;;;;5027904;28;20083;-63
2022/12/10 04:56:06;;;;;;;69.03;27.05;;;-1.20;99.90;;;;;;5029255;28;20504;-62
2022/12/10 04:58:33;;;;;;;65.40;26.42;;;-1.20;99.90;;;;;;5029784;28;20072;-62
2022/12/10 05:01:03;;;;;;;64.00;27.40;;;-1.40;99.90;;;;;;5029931;28;20267;-62
2022/12/10 05:03:29;;;;;;;66.40;27.35;;;-1.20;99.90;;;;;;5029565;28;20091;-63
2022/12/10 05:05:55;;;;;;;66.80;26.55;;;-1.20;99.90;;;;;;5027601;28;20446;-62
2022/12/10 05:08:21;;;;;;;66.40;27.95;;;-1.20;99.90;;;;;;5030296;28;20030;-63
2022/12/10 05:10:46;;;;;;;67.18;26.63;;;-1.20;99.90;;;;;;5029044;28;20476;-63
2022/12/10 05:13:12;;;;;;;62.72;26.40;;;-1.30;99.90;;;;;;5029292;28;20176;-63
2022/12/10 05:15:38;;;;;;;62.78;26.50;;;-1.30;99.90;;;;;;5028655;28;20036;-63
2022/12/10 05:18:04;;;;;;;68.68;26.73;;;-1.30;99.90;;;;;;5022244;28;20095;-63
2022/12/10 05:20:29;;;;;;;64.47;28.13;;;-1.30;99.90;;;;;;5030126;28;20515;-63
2022/12/10 05:25:54;;;;;;;63.67;27.00;;;-1.30;99.90;;;;;;5029684;28;20049;-63
2022/12/10 05:28:22;;;;;;;68.65;27.60;;;-1.30;99.90;;;;;;5018424;28;20069;-62
2022/12/10 05:30:48;;;;;;;61.13;26.15;;;-1.40;99.90;;;;;;5027525;28;20034;-62
2022/12/10 05:33:14;;;;;;;67.20;27.25;;;-1.40;99.90;;;;;;5030446;28;20033;-62
2022/12/10 05:35:40;;;;;;;66.78;28.00;;;-1.40;99.90;;;;;;5029054;28;20048;-62
2022/12/10 05:38:05;;;;;;;68.88;27.08;;;-1.40;99.90;;;;;;5027031;28;20575;-63
2022/12/10 05:40:35;;;;;;;66.15;26.92;;;-1.50;99.90;;;;;;5029743;28;20120;-63
2022/12/10 05:43:01;;;;;;;67.70;26.63;;;-1.50;99.90;;;;;;5029697;28;20038;-63
2022/12/10 05:45:27;;;;;;;70.95;27.13;;;-1.50;99.90;;;;;;5024336;28;20607;-63
2022/12/10 05:47:52;;;;;;;61.13;26.20;;;-1.50;99.90;;;;;;5020378;28;20038;-62
2022/12/10 05:50:18;;;;;;;70.63;28.77;;;-1.50;99.90;;;;;;5029201;28;20022;-63
2022/12/10 05:52:43;;;;;;;66.93;27.02;;;-1.40;99.90;;;;;;5027301;28;20080;-63
2022/12/10 05:55:09;;;;;;;70.53;27.55;;;-1.40;99.90;;;;;;5021360;28;20116;-63
2022/12/10 05:57:36;;;;;;;65.95;27.45;;;-1.40;99.90;;;;;;5025871;28;20476;-63
2022/12/10 06:00:04;;;;;;;73.03;27.80;;;-1.40;99.90;;;;;;5027938;28;20117;-64
2022/12/10 06:02:32;;;;;;;71.57;27.70;;;-1.30;99.90;;;;;;5029732;28;20046;-63
2022/12/10 06:04:58;;;;;;;68.03;27.63;;;-1.30;99.90;;;;;;5028423;28;20512;-63
2022/12/10 06:07:23;;;;;;;65.95;27.65;;;-1.20;99.90;;;;;;5029044;28;20040;-63
2022/12/10 06:09:49;;;;;;;73.03;28.95;;;-1.20;99.90;;;;;;5029232;28;20095;-62
2022/12/10 06:12:14;;;;;;;69.55;27.52;;;-1.10;99.90;;;;;;5029075;28;20065;-63
2022/12/10 06:14:40;;;;;;;72.88;28.77;;;-1.10;99.90;;;;;;5033151;28;20443;-61
2022/12/10 06:17:06;;;;;;;65.68;26.65;;;-1.10;99.90;;;;;;5032492;28;20136;-61
2022/12/10 06:19:31;;;;;;;69.22;28.33;;;-1.10;99.90;;;;;;5032897;28;20033;-61
2022/12/10 06:21:58;;;;;;;68.28;27.85;;;-1.10;99.90;;;;;;5030639;28;20060;-61
2022/12/10 06:24:24;;;;;;;68.30;28.08;;;-1.10;99.90;;;;;;5031460;28;20046;-61
2022/12/10 06:26:49;;;;;;;64.82;27.33;;;-1.10;99.90;;;;;;5028649;28;20137;-61
2022/12/10 06:29:15;;;;;;;71.00;28.65;;;-1.10;99.90;;;;;;5032465;28;20431;-61
2022/12/10 06:31:41;;;;;;;66.90;28.52;;;-1.10;99.90;;;;;;5032891;28;20025;-61
2022/12/10 06:34:06;;;;;;;66.43;27.63;;;-1.10;99.90;;;;;;5032416;28;20125;-62
2022/12/10 06:36:32;;;;;;;68.68;28.05;;;-1.10;99.90;;;;;;5032140;28;20041;-61
2022/12/10 06:38:57;;;;;;;67.75;27.83;;;-1.00;99.90;;;;;;5031953;28;20037;-61
2022/12/10 06:41:23;;;;;;;65.82;28.13;;;-1.00;99.90;;;;;;5030699;28;20400;-62
2022/12/10 06:43:49;;;;;;;66.70;29.65;;;-1.00;99.90;;;;;;5031229;28;20132;-62
2022/12/10 06:46:18;;;;;;;67.32;27.85;;;-1.10;99.90;;;;;;5030747;28;20045;-63
2022/12/10 06:48:44;;;;;;;73.10;28.60;;;-1.10;99.90;;;;;;5028557;28;20037;-62
2022/12/10 06:51:11;;;;;;;74.80;27.60;;;-0.80;99.90;;;;;;5032862;28;20040;-62
2022/12/10 06:53:37;;;;;;;71.60;29.00;;;-1.10;99.90;;;;;;5031373;28;20061;-63
2022/12/10 06:56:05;;;;;;;69.35;28.02;;;-1.10;99.90;;;;;;5031534;28;20029;-61
2022/12/10 06:58:32;;;;;;;71.53;28.23;;;-1.10;99.90;;;;;;5027028;28;20648;-61
2022/12/10 07:01:04;;;;;;;76.22;29.05;;;-1.00;99.90;;;;;;5026371;28;20041;-61
2022/12/10 07:03:30;;;;;;;80.95;30.55;;;-1.10;99.90;;;;;;5027980;28;20100;-62
2022/12/10 07:05:58;;;;;;;80.03;31.10;;;-1.10;99.90;;;;;;5026666;28;20472;-62
2022/12/10 07:08:23;;;;;;;83.10;31.77;;;-1.10;99.90;;;;;;5022891;28;20033;-63
2022/12/10 07:10:49;;;;;;;77.53;31.00;;;-4.00;99.90;;;;;;5028596;28;20475;-62
2022/12/10 07:13:14;;;;;;;78.18;29.67;;;-1.20;99.90;;;;;;5026308;28;20036;-62
2022/12/10 07:15:40;;;;;;;76.30;28.73;;;-1.20;99.90;;;;;;5027317;28;20041;-62
2022/12/10 07:18:05;;;;;;;81.88;30.92;;;-1.20;99.90;;;;;;5029585;28;20117;-63
2022/12/10 07:20:31;;;;;;;85.28;30.98;;;-1.20;99.90;;;;;;5032032;28;20526;-62
2022/12/10 07:22:57;;;;;;;78.00;31.38;;;-1.20;99.90;;;;;;5031236;28;20049;-61
2022/12/10 07:25:22;;;;;;;85.00;31.25;;;-1.20;99.90;;;;;;5031444;28;20040;-61
2022/12/10 07:27:48;;;;;;;77.60;30.35;;;-1.20;99.90;;;;;;5030508;28;20037;-62
2022/12/10 07:30:13;;;;;;;89.38;30.70;;;-1.10;99.90;;;;;;5029691;28;20090;-62
2022/12/10 07:32:39;;;;;;;81.82;30.40;;;-1.10;99.90;;;;;;5030451;28;20033;-62
2022/12/10 07:35:05;;;;;;;75.07;29.48;;;-1.10;99.90;;;;;;5013332;28;20545;-63
2022/12/10 07:37:30;;;;;;;81.47;30.00;;;-1.10;99.90;;;;;;5029551;28;20614;-62
2022/12/10 07:39:56;;;;;;;77.68;30.10;;;-1.00;99.90;;;;;;5030183;28;20038;-63
2022/12/10 07:42:22;;;;;;;78.45;29.65;;;-1.00;99.90;;;;;;5027613;28;20041;-62
2022/12/10 07:44:48;;;;;;;80.63;30.17;;;-1.00;99.90;;;;;;5026274;28;20065;-63
2022/12/10 07:47:13;;;;;;;76.60;30.13;;;-1.00;99.90;;;;;;5027623;28;20037;-61
2022/12/10 07:49:39;;;;;;;80.07;30.35;;;-1.00;99.90;;;;;;5026657;28;20041;-63
2022/12/10 07:52:05;;;;;;;81.90;30.30;;;-1.00;99.90;;;;;;5030997;28;20511;-62
2022/12/10 07:54:30;;;;;;;77.20;30.70;;;-1.00;99.90;;;;;;5029650;28;20041;-64
2022/12/10 07:56:56;;;;;;;83.30;32.22;;;-1.00;99.90;;;;;;5023890;28;20128;-63
2022/12/10 07:59:22;;;;;;;80.93;31.33;;;-1.00;99.90;;;;;;5015655;28;20045;-63
2022/12/10 08:01:49;;;;;;;79.97;30.73;;;-1.00;99.90;;;;;;5024905;28;20038;-63
2022/12/10 08:04:14;;;;;;;75.45;29.45;;;-1.00;99.90;;;;;;5029863;28;20120;-63
2022/12/10 08:06:40;;;;;;;81.57;30.48;;;-1.00;99.90;;;;;;5029848;28;20174;-63
2022/12/10 08:09:06;;;;;;;77.25;30.60;;;-1.00;99.90;;;;;;5025400;28;20033;-62
2022/12/10 08:11:32;;;;;;;83.30;31.25;;;-1.10;99.90;;;;;;5025964;28;20048;-63
2022/12/10 08:13:58;;;;;;;81.10;30.83;;;-1.00;99.90;;;;;;5024045;28;20045;-63
2022/12/10 08:16:26;;;;;;;85.53;31.52;;;-1.00;99.90;;;;;;5024132;28;20048;-63
2022/12/10 08:18:54;;;;;;;84.38;31.00;;;-0.90;99.90;;;;;;5024595;28;20500;-63
2022/12/10 08:21:23;;;;;;;86.43;31.05;;;-0.90;99.90;;;;;;5028802;28;20052;-63
2022/12/10 08:23:49;;;;;;;76.63;30.67;;;-0.90;99.90;;;;;;5030486;28;20041;-63
2022/12/10 08:26:17;;;;;;;77.43;31.38;;;-0.80;99.90;;;;;;5016190;28;20041;-63
2022/12/10 08:28:44;;;;;;;79.05;31.00;;;-0.80;99.90;;;;;;5021370;28;20137;-63
2022/12/10 08:31:11;;;;;;;84.28;30.55;;;-0.80;99.90;;;;;;5027205;28;20140;-63
2022/12/10 08:33:38;;;;;;;85.80;30.88;;;-0.80;99.90;;;;;;5014421;28;20030;-62
2022/12/10 08:36:05;;;;;;;80.53;31.63;;;-0.80;99.90;;;;;;5021138;28;20033;-62
2022/12/10 08:38:31;;;;;;;73.70;28.73;;;-0.80;99.90;;;;;;5022421;28;20030;-62
2022/12/10 08:40:57;;;;;;;89.95;32.65;;;-0.70;99.90;;;;;;5020628;28;20088;-62
2022/12/10 08:43:23;;;;;;;79.45;30.85;;;-0.80;99.90;;;;;;5024240;28;20088;-62
2022/12/10 08:45:49;;;;;;;78.13;30.55;;;-0.80;99.90;;;;;;5025076;28;20045;-62
2022/12/10 08:48:14;;;;;;;78.03;29.95;;;-0.80;99.90;;;;;;5020130;28;20484;-62
2022/12/10 08:50:40;;;;;;;80.88;30.00;;;-0.80;99.90;;;;;;5022707;28;20084;-63
2022/12/10 08:53:05;;;;;;;89.10;32.28;;;-0.70;99.90;;;;;;5024142;28;20038;-63
2022/12/10 08:55:31;;;;;;;94.63;33.83;;;-0.80;99.90;;;;;;5023819;28;20049;-62
2022/12/10 08:57:58;;;;;;;83.30;31.60;;;-0.70;99.90;;;;;;5027260;28;20045;-62
2022/12/10 09:00:24;;;;;;;92.22;32.55;;;-0.70;99.90;;;;;;5024648;28;20037;-63
2022/12/10 09:02:50;;;;;;;79.78;31.48;;;-0.70;99.90;;;;;;5026703;28;20316;-63
2022/12/10 09:05:16;;;;;;;82.90;32.25;;;-0.70;99.90;;;;;;5018062;28;20312;-63
2022/12/10 09:07:42;;;;;;;83.57;32.30;;;-0.60;99.90;;;;;;5030164;28;20069;-63
2022/12/10 09:10:11;;;;;;;87.70;31.50;;;-0.60;99.90;;;;;;5011984;28;20065;-63
2022/12/10 09:12:37;;;;;;;86.13;31.00;;;-0.70;99.90;;;;;;5029625;28;20036;-63
2022/12/10 09:15:04;;;;;;;84.57;31.08;;;-0.60;99.90;;;;;;5030495;28;20041;-63
2022/12/10 09:17:30;;;;;;;89.50;31.88;;;-0.60;99.90;;;;;;5026989;28;20045;-63
2022/12/10 09:19:55;;;;;;;86.07;32.75;;;-0.60;99.90;;;;;;5023512;28;20037;-63
2022/12/10 09:22:21;;;;;;;81.35;31.05;;;-0.60;99.90;;;;;;5029822;28;20538;-63
2022/12/10 09:24:47;;;;;;;76.28;28.90;;;-0.70;99.90;;;;;;5027495;28;20546;-63
2022/12/10 09:27:12;;;;;;;88.28;29.83;;;-0.70;99.90;;;;;;5029020;28;20423;-63
2022/12/10 09:29:38;;;;;;;82.13;30.55;;;-0.70;99.90;;;;;;5024114;28;20089;-63
2022/12/10 09:32:03;;;;;;;85.60;29.55;;;-0.70;99.90;;;;;;5023194;28;20502;-64
2022/12/10 09:34:29;;;;;;;79.10;29.60;;;-0.80;99.90;;;;;;5023659;28;20041;-63
2022/12/10 09:36:57;;;;;;;87.43;31.25;;;-0.80;99.90;;;;;;5025146;28;20040;-62
2022/12/10 09:39:23;;;;;;;89.22;32.65;;;-0.80;99.90;;;;;;5027431;28;20547;-63
2022/12/10 09:41:54;;;;;;;94.20;32.25;;;-0.80;99.90;;;;;;5028471;28;20112;-63
2022/12/10 09:44:25;;;;;;;124.60;32.95;;;-0.70;99.90;;;;;;5027700;28;20488;-63
2022/12/10 09:46:54;;;;;;;95.45;32.60;;;-0.70;99.90;;;;;;5024385;28;20075;-63
2022/12/10 09:49:26;;;;;;;89.20;30.33;;;-0.70;99.90;;;;;;5028333;28;20037;-63
2022/12/10 09:51:57;;;;;;;99.95;32.90;;;-0.70;99.90;;;;;;5027390;28;20033;-63
2022/12/10 09:54:27;;;;;;;92.57;31.63;;;-0.70;99.90;;;;;;5031402;28;20033;-63
2022/12/10 09:56:58;;;;;;;104.72;33.17;;;-0.70;99.90;;;;;;5032227;28;20116;-63
2022/12/10 09:59:46;;;;;;;101.15;33.20;;;-0.70;99.90;;;;;;5026616;28;20045;-62
2022/12/10 10:02:30;;;;;;;94.18;32.72;;;-0.70;99.90;;;;;;5030550;28;20037;-62
2022/12/10 10:05:01;;;;;;;87.35;31.60;;;-0.70;99.90;;;;;;5032864;28;20116;-63
2022/12/10 10:07:30;;;;;;;91.82;31.25;;;-0.60;99.90;;;;;;5029071;28;20049;-63
2022/12/10 10:10:03;;;;;;;79.53;28.27;;;-0.60;99.90;;;;;;5029945;28;20563;-63
2022/12/10 10:12:31;;;;;;;76.00;29.40;;;-0.60;99.90;;;;;;5027066;28;20539;-63
2022/12/10 10:14:57;;;;;;;82.22;28.30;;;-0.50;99.90;;;;;;5030145;28;20072;-63
2022/12/10 10:17:35;;;;;;;77.25;27.42;;;-0.60;99.90;;;;;;5030504;28;20083;-63
2022/12/10 10:20:01;;;;;;;82.20;28.30;;;-0.50;99.90;;;;;;5026522;28;20340;-62
2022/12/10 10:22:27;;;;;;;85.35;30.15;;;-0.50;99.90;;;;;;5029672;28;20037;-63
2022/12/10 10:24:53;;;;;;;84.60;29.10;;;-0.60;99.90;;;;;;5031169;28;20570;-62
2022/12/10 10:27:26;;;;;;;86.78;30.27;;;-0.50;99.90;;;;;;5030701;28;20033;-63
2022/12/10 10:29:53;;;;;;;94.13;30.08;;;-0.50;99.90;;;;;;5030166;28;20072;-64
2022/12/10 10:32:21;;;;;;;94.68;31.67;;;-0.50;99.90;;;;;;5027990;28;20412;-63
2022/12/10 10:34:52;;;;;;;99.07;31.58;;;-0.50;99.90;;;;;;5028795;28;20049;-65
2022/12/10 10:37:31;;;;;;;112.72;34.35;;;-0.50;99.90;;;;;;5029556;28;20030;-63
2022/12/10 10:39:58;;;;;;;110.43;34.67;;;-0.40;99.90;;;;;;5026448;28;20064;-62
2022/12/10 10:42:23;;;;;;;121.13;35.25;;;-0.50;99.90;;;;;;5026581;28;20079;-63
2022/12/10 10:44:49;;;;;;;119.55;36.28;;;-0.50;99.90;;;;;;5022222;28;20050;-63
2022/12/10 10:47:32;;;;;;;120.45;35.45;;;-0.50;99.90;;;;;;5018438;28;20128;-63
2022/12/10 10:49:59;;;;;;;117.32;35.65;;;-0.50;99.90;;;;;;5027601;28;20457;-63
2022/12/10 10:52:29;;;;;;;126.07;35.85;;;-0.50;99.90;;;;;;5027381;28;20480;-63
2022/12/10 10:54:58;;;;;;;120.13;34.17;;;-0.50;99.90;;;;;;5032098;28;20044;-63
2022/12/10 10:57:31;;;;;;;127.88;36.97;;;-0.50;99.90;;;;;;5029244;28;20120;-63
2022/12/10 11:00:24;;;;;;;132.38;36.45;;;-0.50;99.90;;;;;;5028942;28;20037;-63
2022/12/10 11:02:50;;;;;;;126.03;37.55;;;-0.40;99.90;;;;;;5029580;28;20083;-62
2022/12/10 11:05:25;;;;;;;142.77;38.83;;;-0.50;99.90;;;;;;5031521;28;20044;-62
2022/12/10 11:08:07;;;;;;;135.48;37.28;;;-0.40;99.90;;;;;;5031592;28;20411;-63
2022/12/10 11:10:33;;;;;;;132.15;36.28;;;-0.40;99.90;;;;;;5032038;28;20041;-63
2022/12/10 11:13:04;;;;;;;133.85;37.20;;;-0.30;99.90;;;;;;5026380;28;20075;-63
2022/12/10 11:15:33;;;;;;;129.45;36.90;;;-0.20;99.90;;;;;;5028168;28;20041;-63
2022/12/10 11:17:59;;;;;;;132.35;39.30;;;-0.10;99.90;;;;;;5029579;28;20086;-63
2022/12/10 11:20:28;;;;;;;129.43;36.97;;;-0.10;99.90;;;;;;5025302;28;20038;-63
2022/12/10 11:23:11;;;;;;;133.68;38.42;;;-0.10;99.90;;;;;;5022809;28;20046;-62
2022/12/10 11:25:45;;;;;;;123.68;37.70;;;-0.10;99.90;;;;;;5030316;28;20557;-63
2022/12/10 11:28:29;;;;;;;129.38;37.35;;;-0.10;99.90;;;;;;5027759;28;20072;-63
2022/12/10 11:31:18;;;;;;;139.43;37.58;;;-0.10;99.90;;;;;;5027400;28;20404;-63
2022/12/10 11:33:58;;;;;;;122.20;36.10;;;0.00;99.90;;;;;;5030435;28;20047;-62
2022/12/10 11:36:32;;;;;;;126.80;35.83;;;0.00;99.90;;;;;;5019689;28;20116;-63
2022/12/10 11:39:54;;;;;;;125.38;35.70;;;0.00;99.90;;;;;;5023230;28;20518;-63
2022/12/10 11:42:51;;;;;;;127.88;36.13;;;0.00;99.90;;;;;;5021056;28;20042;-63
2022/12/10 11:45:23;;;;;;;131.75;36.88;;;-0.10;99.90;;;;;;5024132;28;20048;-63
2022/12/10 11:48:24;;;;;;;127.30;37.67;;;-0.10;99.90;;;;;;5025166;28;20069;-63
2022/12/10 11:50:55;;;;;;;134.02;38.67;;;-0.10;99.90;;;;;;5024681;28;20049;-62
2022/12/10 11:53:57;;;;;;;132.15;38.08;;;-0.10;99.90;;;;;;5025941;28;20448;-63
2022/12/10 11:56:58;;;;;;;134.07;38.78;;;-0.10;99.90;;;;;;5021978;28;20503;-62
2022/12/10 11:59:42;;;;;;;127.53;39.47;;;-0.10;99.90;;;;;;5018018;28;20132;-62
2022/12/10 12:02:34;;;;;;;128.80;38.17;;;-0.10;99.90;;;;;;5022460;28;20029;-62
2022/12/10 12:05:18;;;;;;;135.40;37.55;;;-0.10;99.90;;;;;;5020407;28;20044;-62
2022/12/10 12:08:09;;;;;;;140.68;38.78;;;-0.10;99.90;;;;;;5020886;28;20443;-63
2022/12/10 12:11:05;;;;;;;133.93;38.30;;;-0.10;99.90;;;;;;5020495;28;20033;-64
2022/12/10 12:13:38;;;;;;;131.52;37.63;;;-0.10;99.90;;;;;;5021461;28;20063;-63
2022/12/10 12:16:14;;;;;;;117.82;36.50;;;-0.10;99.90;;;;;;5019218;28;20213;-64
2022/12/10 12:18:50;;;;;;;121.07;37.20;;;0.00;99.90;;;;;;5032888;28;20392;-64
2022/12/10 12:21:17;;;;;;;124.80;37.20;;;0.00;99.90;;;;;;5021726;28;20321;-64
2022/12/10 12:23:49;;;;;;;110.65;34.42;;;0.00;99.90;;;;;;5022708;28;20053;-63
2022/12/10 12:27:00;;;;;;;118.60;37.17;;;0.00;99.90;;;;;;5018719;28;20045;-64
2022/12/10 12:29:29;;;;;;;114.80;35.53;;;0.00;99.90;;;;;;4999286;28;20412;-64
2022/12/10 12:32:25;;;;;;;117.22;36.40;;;0.00;99.90;;;;;;5023523;28;20049;-64
2022/12/10 12:34:59;;;;;;;121.45;35.35;;;0.00;99.90;;;;;;5021419;28;20041;-64
2022/12/10 12:37:36;;;;;;;115.18;35.47;;;0.00;99.90;;;;;;5020556;28;20039;-63
2022/12/10 12:40:20;;;;;;;113.07;36.10;;;0.00;99.90;;;;;;5018271;28;20128;-64
2022/12/10 12:43:07;;;;;;;121.10;35.97;;;0.00;99.90;;;;;;5020900;28;20042;-63
2022/12/10 12:45:40;;;;;;;114.97;34.35;;;0.00;99.90;;;;;;5021911;28;20056;-64
2022/12/10 12:48:36;;;;;;;115.13;35.72;;;0.00;99.90;;;;;;5021350;28;20360;-71
2022/12/10 12:51:38;;;;;;;105.05;34.20;;;0.00;99.90;;;;;;5024209;28;20037;-64